sensor_id;sensor_type;location;lat;lon;timestamp;P1;durP1;ratioP1;P2;durP2;ratioP2
50225;SDS011;36113;50.742;6.432;2022-12-07T00:01:10;37.28;;;26.67;;
50225;SDS011;36113;50.742;6.432;2022-12-07T00:03:37;35.50;;;24.77;;
50225;SDS011;36113;50.742;6.432;2022-12-07T00:06:04;42.17;;;25.58;;
50225;SDS011;36113;50.742;6.432;2022-12-07T00:11:00;35.78;;;24.10;;
50225;SDS011;36113;50.742;6.432;2022-12-07T00:13:30;36.80;;;24.58;;
50225;SDS011;36113;50.742;6.432;2022-12-07T00:15:59;34.70;;;23.73;;
50225;SDS011;36113;50.742;6.432;2022-12-07T00:18:25;35.08;;;23.52;;
50225;SDS011;36113;50.742;6.432;2022-12-07T00:20:50;34.92;;;24.23;;
50225;SDS011;36113;50.742;6.432;2022-12-07T00:23:16;35.65;;;23.90;;
50225;SDS011;36113;50.742;6.432;2022-12-07T00:25:41;34.88;;;25.17;;
50225;SDS011;36113;50.742;6.432;2022-12-07T00:28:06;36.35;;;25.17;;
50225;SDS011;36113;50.742;6.432;2022-12-07T00:30:34;40.45;;;26.23;;
50225;SDS011;36113;50.742;6.432;2022-12-07T00:32:59;37.22;;;24.95;;
50225;SDS011;36113;50.742;6.432;2022-12-07T00:35:24;41.13;;;27.63;;
50225;SDS011;36113;50.742;6.432;2022-12-07T00:37:50;39.50;;;26.80;;
50225;SDS011;36113;50.742;6.432;2022-12-07T00:40:15;41.67;;;27.95;;
50225;SDS011;36113;50.742;6.432;2022-12-07T00:42:40;44.03;;;28.40;;
50225;SDS011;36113;50.742;6.432;2022-12-07T00:45:06;41.45;;;27.95;;
50225;SDS011;36113;50.742;6.432;2022-12-07T00:47:32;44.85;;;29.02;;
50225;SDS011;36113;50.742;6.432;2022-12-07T00:49:57;45.42;;;28.65;;
50225;SDS011;36113;50.742;6.432;2022-12-07T00:52:23;47.72;;;29.60;;
50225;SDS011;36113;50.742;6.432;2022-12-07T00:54:48;43.03;;;26.70;;
50225;SDS011;36113;50.742;6.432;2022-12-07T00:57:14;47.83;;;28.38;;
50225;SDS011;36113;50.742;6.432;2022-12-07T00:59:39;46.55;;;26.95;;
50225;SDS011;36113;50.742;6.432;2022-12-07T01:02:04;47.85;;;29.50;;
50225;SDS011;36113;50.742;6.432;2022-12-07T01:04:29;44.15;;;29.15;;
50225;SDS011;36113;50.742;6.432;2022-12-07T01:06:55;39.92;;;28.23;;
50225;SDS011;36113;50.742;6.432;2022-12-07T01:09:20;40.97;;;27.25;;
50225;SDS011;36113;50.742;6.432;2022-12-07T01:11:45;44.00;;;26.27;;
50225;SDS011;36113;50.742;6.432;2022-12-07T01:14:10;43.15;;;27.50;;
50225;SDS011;36113;50.742;6.432;2022-12-07T01:16:36;42.63;;;26.98;;
50225;SDS011;36113;50.742;6.432;2022-12-07T01:19:03;42.00;;;27.27;;
50225;SDS011;36113;50.742;6.432;2022-12-07T01:21:31;37.15;;;24.10;;
50225;SDS011;36113;50.742;6.432;2022-12-07T01:24:03;46.60;;;26.42;;
50225;SDS011;36113;50.742;6.432;2022-12-07T01:26:29;40.47;;;26.15;;
50225;SDS011;36113;50.742;6.432;2022-12-07T01:28:54;42.13;;;26.80;;
50225;SDS011;36113;50.742;6.432;2022-12-07T01:31:21;42.25;;;26.42;;
50225;SDS011;36113;50.742;6.432;2022-12-07T01:33:50;42.85;;;25.73;;
50225;SDS011;36113;50.742;6.432;2022-12-07T01:38:57;41.72;;;26.27;;
50225;SDS011;36113;50.742;6.432;2022-12-07T01:41:26;39.55;;;25.25;;
50225;SDS011;36113;50.742;6.432;2022-12-07T01:44:11;35.63;;;25.30;;
50225;SDS011;36113;50.742;6.432;2022-12-07T01:49:31;37.58;;;25.80;;
50225;SDS011;36113;50.742;6.432;2022-12-07T01:55:00;33.58;;;23.85;;
50225;SDS011;36113;50.742;6.432;2022-12-07T01:57:30;30.10;;;21.40;;
50225;SDS011;36113;50.742;6.432;2022-12-07T01:59:58;34.75;;;23.90;;
50225;SDS011;36113;50.742;6.432;2022-12-07T02:02:26;33.80;;;24.03;;
50225;SDS011;36113;50.742;6.432;2022-12-07T02:04:55;29.75;;;22.75;;
50225;SDS011;36113;50.742;6.432;2022-12-07T02:07:22;31.15;;;22.40;;
50225;SDS011;36113;50.742;6.432;2022-12-07T02:09:48;29.95;;;21.13;;
50225;SDS011;36113;50.742;6.432;2022-12-07T02:12:14;30.10;;;21.00;;
50225;SDS011;36113;50.742;6.432;2022-12-07T02:14:39;29.23;;;21.40;;
50225;SDS011;36113;50.742;6.432;2022-12-07T02:20:11;30.75;;;21.80;;
50225;SDS011;36113;50.742;6.432;2022-12-07T02:23:04;29.60;;;21.42;;
50225;SDS011;36113;50.742;6.432;2022-12-07T02:28:56;34.08;;;23.20;;
50225;SDS011;36113;50.742;6.432;2022-12-07T02:31:33;32.40;;;23.83;;
50225;SDS011;36113;50.742;6.432;2022-12-07T02:34:04;33.40;;;22.48;;
50225;SDS011;36113;50.742;6.432;2022-12-07T02:36:36;32.65;;;22.52;;
50225;SDS011;36113;50.742;6.432;2022-12-07T02:39:51;33.70;;;20.95;;
50225;SDS011;36113;50.742;6.432;2022-12-07T02:42:07;27.63;;;20.20;;
50225;SDS011;36113;50.742;6.432;2022-12-07T02:44:38;30.20;;;21.80;;
50225;SDS011;36113;50.742;6.432;2022-12-07T02:47:06;32.60;;;23.02;;
50225;SDS011;36113;50.742;6.432;2022-12-07T02:49:35;31.50;;;21.95;;
50225;SDS011;36113;50.742;6.432;2022-12-07T02:52:03;33.33;;;23.50;;
50225;SDS011;36113;50.742;6.432;2022-12-07T02:54:29;34.45;;;23.95;;
50225;SDS011;36113;50.742;6.432;2022-12-07T02:57:19;39.72;;;26.10;;
50225;SDS011;36113;50.742;6.432;2022-12-07T03:00:04;39.28;;;24.90;;
50225;SDS011;36113;50.742;6.432;2022-12-07T03:13:15;43.83;;;24.45;;
50225;SDS011;36113;50.742;6.432;2022-12-07T03:16:05;34.10;;;22.88;;
50225;SDS011;36113;50.742;6.432;2022-12-07T03:18:38;32.17;;;22.27;;
50225;SDS011;36113;50.742;6.432;2022-12-07T03:21:10;31.98;;;21.40;;
50225;SDS011;36113;50.742;6.432;2022-12-07T03:23:38;30.52;;;21.60;;
50225;SDS011;36113;50.742;6.432;2022-12-07T03:26:09;35.55;;;22.10;;
50225;SDS011;36113;50.742;6.432;2022-12-07T03:28:39;36.95;;;24.40;;
50225;SDS011;36113;50.742;6.432;2022-12-07T03:31:14;32.45;;;20.23;;
50225;SDS011;36113;50.742;6.432;2022-12-07T03:33:48;28.33;;;20.33;;
50225;SDS011;36113;50.742;6.432;2022-12-07T03:36:21;33.67;;;20.58;;
50225;SDS011;36113;50.742;6.432;2022-12-07T03:39:12;33.53;;;21.95;;
50225;SDS011;36113;50.742;6.432;2022-12-07T03:41:52;34.00;;;21.27;;
50225;SDS011;36113;50.742;6.432;2022-12-07T03:44:18;35.95;;;22.73;;
50225;SDS011;36113;50.742;6.432;2022-12-07T03:46:50;43.03;;;25.17;;
50225;SDS011;36113;50.742;6.432;2022-12-07T03:49:23;41.05;;;23.83;;
50225;SDS011;36113;50.742;6.432;2022-12-07T03:54:39;33.97;;;21.58;;
50225;SDS011;36113;50.742;6.432;2022-12-07T03:57:10;34.03;;;22.35;;
50225;SDS011;36113;50.742;6.432;2022-12-07T03:59:37;32.63;;;23.52;;
50225;SDS011;36113;50.742;6.432;2022-12-07T04:02:05;32.38;;;21.55;;
50225;SDS011;36113;50.742;6.432;2022-12-07T04:04:31;33.55;;;22.52;;
50225;SDS011;36113;50.742;6.432;2022-12-07T04:06:58;31.30;;;21.87;;
50225;SDS011;36113;50.742;6.432;2022-12-07T04:09:24;33.38;;;22.83;;
50225;SDS011;36113;50.742;6.432;2022-12-07T04:11:50;38.30;;;21.73;;
50225;SDS011;36113;50.742;6.432;2022-12-07T04:14:15;31.95;;;21.00;;
50225;SDS011;36113;50.742;6.432;2022-12-07T04:16:44;30.00;;;21.73;;
50225;SDS011;36113;50.742;6.432;2022-12-07T04:19:13;33.80;;;22.88;;
50225;SDS011;36113;50.742;6.432;2022-12-07T04:21:39;33.25;;;21.40;;
50225;SDS011;36113;50.742;6.432;2022-12-07T04:24:05;29.20;;;21.67;;
50225;SDS011;36113;50.742;6.432;2022-12-07T04:26:30;31.98;;;21.10;;
50225;SDS011;36113;50.742;6.432;2022-12-07T04:28:56;31.80;;;18.95;;
50225;SDS011;36113;50.742;6.432;2022-12-07T04:31:21;27.90;;;18.85;;
50225;SDS011;36113;50.742;6.432;2022-12-07T04:33:46;27.35;;;19.65;;
50225;SDS011;36113;50.742;6.432;2022-12-07T04:36:12;23.77;;;17.00;;
50225;SDS011;36113;50.742;6.432;2022-12-07T04:38:37;23.85;;;17.52;;
50225;SDS011;36113;50.742;6.432;2022-12-07T04:41:06;24.90;;;16.88;;
50225;SDS011;36113;50.742;6.432;2022-12-07T04:43:32;27.27;;;18.15;;
50225;SDS011;36113;50.742;6.432;2022-12-07T04:45:57;23.88;;;17.63;;
50225;SDS011;36113;50.742;6.432;2022-12-07T04:48:23;33.20;;;19.23;;
50225;SDS011;36113;50.742;6.432;2022-12-07T04:50:48;26.77;;;17.70;;
50225;SDS011;36113;50.742;6.432;2022-12-07T04:53:17;25.38;;;17.42;;
50225;SDS011;36113;50.742;6.432;2022-12-07T04:55:42;24.63;;;16.00;;
50225;SDS011;36113;50.742;6.432;2022-12-07T04:58:08;27.58;;;15.82;;
50225;SDS011;36113;50.742;6.432;2022-12-07T05:00:33;22.83;;;15.68;;
50225;SDS011;36113;50.742;6.432;2022-12-07T05:02:59;20.90;;;14.60;;
50225;SDS011;36113;50.742;6.432;2022-12-07T05:05:24;20.67;;;15.40;;
50225;SDS011;36113;50.742;6.432;2022-12-07T05:07:49;24.42;;;15.55;;
50225;SDS011;36113;50.742;6.432;2022-12-07T05:10:15;27.45;;;17.63;;
50225;SDS011;36113;50.742;6.432;2022-12-07T05:12:41;25.25;;;17.92;;
50225;SDS011;36113;50.742;6.432;2022-12-07T05:15:06;30.55;;;19.45;;
50225;SDS011;36113;50.742;6.432;2022-12-07T05:17:31;28.73;;;18.25;;
50225;SDS011;36113;50.742;6.432;2022-12-07T05:19:57;27.98;;;17.85;;
50225;SDS011;36113;50.742;6.432;2022-12-07T05:22:22;30.40;;;18.08;;
50225;SDS011;36113;50.742;6.432;2022-12-07T05:24:47;27.38;;;18.92;;
50225;SDS011;36113;50.742;6.432;2022-12-07T05:27:13;25.02;;;18.25;;
50225;SDS011;36113;50.742;6.432;2022-12-07T05:29:38;28.63;;;18.48;;
50225;SDS011;36113;50.742;6.432;2022-12-07T05:32:03;27.02;;;17.30;;
50225;SDS011;36113;50.742;6.432;2022-12-07T05:34:29;27.77;;;17.88;;
50225;SDS011;36113;50.742;6.432;2022-12-07T05:36:54;23.88;;;15.88;;
50225;SDS011;36113;50.742;6.432;2022-12-07T05:39:19;23.33;;;15.23;;
50225;SDS011;36113;50.742;6.432;2022-12-07T05:41:44;24.10;;;15.05;;
50225;SDS011;36113;50.742;6.432;2022-12-07T05:44:28;21.58;;;14.80;;
50225;SDS011;36113;50.742;6.432;2022-12-07T05:46:53;26.15;;;15.13;;
50225;SDS011;36113;50.742;6.432;2022-12-07T05:49:19;22.90;;;16.23;;
50225;SDS011;36113;50.742;6.432;2022-12-07T05:51:44;24.55;;;14.95;;
50225;SDS011;36113;50.742;6.432;2022-12-07T05:54:09;25.75;;;16.15;;
50225;SDS011;36113;50.742;6.432;2022-12-07T05:56:35;26.02;;;15.88;;
50225;SDS011;36113;50.742;6.432;2022-12-07T05:59:00;23.38;;;14.75;;
50225;SDS011;36113;50.742;6.432;2022-12-07T06:01:44;20.08;;;15.55;;
50225;SDS011;36113;50.742;6.432;2022-12-07T06:04:10;25.45;;;16.27;;
50225;SDS011;36113;50.742;6.432;2022-12-07T06:06:35;24.60;;;16.92;;
50225;SDS011;36113;50.742;6.432;2022-12-07T06:09:00;24.33;;;16.38;;
50225;SDS011;36113;50.742;6.432;2022-12-07T06:11:26;25.35;;;15.95;;
50225;SDS011;36113;50.742;6.432;2022-12-07T06:14:10;22.27;;;15.18;;
50225;SDS011;36113;50.742;6.432;2022-12-07T06:16:35;25.30;;;15.15;;
50225;SDS011;36113;50.742;6.432;2022-12-07T06:19:00;24.38;;;14.73;;
50225;SDS011;36113;50.742;6.432;2022-12-07T06:21:25;24.10;;;16.35;;
50225;SDS011;36113;50.742;6.432;2022-12-07T06:23:51;23.45;;;15.43;;
50225;SDS011;36113;50.742;6.432;2022-12-07T06:26:17;26.23;;;13.90;;
50225;SDS011;36113;50.742;6.432;2022-12-07T06:28:42;25.00;;;14.27;;
50225;SDS011;36113;50.742;6.432;2022-12-07T06:31:08;23.38;;;14.05;;
50225;SDS011;36113;50.742;6.432;2022-12-07T06:33:34;20.13;;;12.75;;
50225;SDS011;36113;50.742;6.432;2022-12-07T06:35:59;21.27;;;12.23;;
50225;SDS011;36113;50.742;6.432;2022-12-07T06:38:25;19.10;;;12.82;;
50225;SDS011;36113;50.742;6.432;2022-12-07T06:40:50;20.17;;;13.05;;
50225;SDS011;36113;50.742;6.432;2022-12-07T06:43:15;18.10;;;12.52;;
50225;SDS011;36113;50.742;6.432;2022-12-07T06:45:41;20.38;;;13.57;;
50225;SDS011;36113;50.742;6.432;2022-12-07T06:48:07;17.98;;;13.07;;
50225;SDS011;36113;50.742;6.432;2022-12-07T06:50:32;22.25;;;12.90;;
50225;SDS011;36113;50.742;6.432;2022-12-07T06:52:57;18.58;;;12.63;;
50225;SDS011;36113;50.742;6.432;2022-12-07T06:55:23;20.10;;;12.95;;
50225;SDS011;36113;50.742;6.432;2022-12-07T06:57:48;19.20;;;12.77;;
50225;SDS011;36113;50.742;6.432;2022-12-07T07:00:13;23.08;;;12.68;;
50225;SDS011;36113;50.742;6.432;2022-12-07T07:02:39;19.15;;;12.25;;
50225;SDS011;36113;50.742;6.432;2022-12-07T07:05:04;21.00;;;13.50;;
50225;SDS011;36113;50.742;6.432;2022-12-07T07:07:30;20.52;;;13.10;;
50225;SDS011;36113;50.742;6.432;2022-12-07T07:09:55;21.48;;;13.80;;
50225;SDS011;36113;50.742;6.432;2022-12-07T07:12:20;23.60;;;13.77;;
50225;SDS011;36113;50.742;6.432;2022-12-07T07:14:46;23.63;;;13.90;;
50225;SDS011;36113;50.742;6.432;2022-12-07T07:17:12;24.17;;;14.88;;
50225;SDS011;36113;50.742;6.432;2022-12-07T07:19:37;20.90;;;13.77;;
50225;SDS011;36113;50.742;6.432;2022-12-07T07:22:03;21.83;;;15.07;;
50225;SDS011;36113;50.742;6.432;2022-12-07T07:24:28;22.73;;;14.75;;
50225;SDS011;36113;50.742;6.432;2022-12-07T07:26:53;24.35;;;14.50;;
50225;SDS011;36113;50.742;6.432;2022-12-07T07:29:19;23.40;;;14.52;;
50225;SDS011;36113;50.742;6.432;2022-12-07T07:31:44;25.80;;;14.77;;
50225;SDS011;36113;50.742;6.432;2022-12-07T07:34:09;21.02;;;13.85;;
50225;SDS011;36113;50.742;6.432;2022-12-07T07:36:35;19.63;;;13.48;;
50225;SDS011;36113;50.742;6.432;2022-12-07T07:39:00;20.90;;;14.23;;
50225;SDS011;36113;50.742;6.432;2022-12-07T07:41:25;29.13;;;15.32;;
50225;SDS011;36113;50.742;6.432;2022-12-07T07:43:50;22.73;;;15.07;;
50225;SDS011;36113;50.742;6.432;2022-12-07T07:46:16;24.38;;;16.15;;
50225;SDS011;36113;50.742;6.432;2022-12-07T07:48:41;24.50;;;15.07;;
50225;SDS011;36113;50.742;6.432;2022-12-07T07:51:07;22.83;;;14.68;;
50225;SDS011;36113;50.742;6.432;2022-12-07T07:53:33;24.10;;;14.98;;
50225;SDS011;36113;50.742;6.432;2022-12-07T07:55:58;23.63;;;16.38;;
50225;SDS011;36113;50.742;6.432;2022-12-07T07:58:24;22.65;;;15.25;;
50225;SDS011;36113;50.742;6.432;2022-12-07T08:00:49;23.20;;;14.73;;
50225;SDS011;36113;50.742;6.432;2022-12-07T08:03:14;21.80;;;13.63;;
50225;SDS011;36113;50.742;6.432;2022-12-07T08:05:40;17.67;;;13.35;;
50225;SDS011;36113;50.742;6.432;2022-12-07T08:08:05;22.60;;;13.95;;
50225;SDS011;36113;50.742;6.432;2022-12-07T08:10:31;18.90;;;12.93;;
50225;SDS011;36113;50.742;6.432;2022-12-07T08:12:57;18.70;;;13.57;;
50225;SDS011;36113;50.742;6.432;2022-12-07T08:15:43;18.67;;;12.57;;
50225;SDS011;36113;50.742;6.432;2022-12-07T08:18:10;18.17;;;13.07;;
50225;SDS011;36113;50.742;6.432;2022-12-07T08:20:36;18.40;;;12.73;;
50225;SDS011;36113;50.742;6.432;2022-12-07T08:23:02;21.55;;;13.90;;
50225;SDS011;36113;50.742;6.432;2022-12-07T08:25:28;25.92;;;13.23;;
50225;SDS011;36113;50.742;6.432;2022-12-07T08:27:53;24.65;;;15.02;;
50225;SDS011;36113;50.742;6.432;2022-12-07T08:30:19;22.15;;;15.05;;
50225;SDS011;36113;50.742;6.432;2022-12-07T08:32:46;26.65;;;16.02;;
50225;SDS011;36113;50.742;6.432;2022-12-07T08:35:12;25.23;;;16.38;;
50225;SDS011;36113;50.742;6.432;2022-12-07T08:37:38;23.75;;;14.48;;
50225;SDS011;36113;50.742;6.432;2022-12-07T08:40:04;21.77;;;12.95;;
50225;SDS011;36113;50.742;6.432;2022-12-07T08:42:31;26.00;;;16.30;;
50225;SDS011;36113;50.742;6.432;2022-12-07T08:45:03;26.45;;;15.75;;
50225;SDS011;36113;50.742;6.432;2022-12-07T08:47:34;27.90;;;15.50;;
50225;SDS011;36113;50.742;6.432;2022-12-07T08:50:02;24.05;;;15.25;;
50225;SDS011;36113;50.742;6.432;2022-12-07T08:52:30;27.58;;;15.18;;
50225;SDS011;36113;50.742;6.432;2022-12-07T08:54:56;28.90;;;15.20;;
50225;SDS011;36113;50.742;6.432;2022-12-07T08:57:22;28.48;;;15.23;;
50225;SDS011;36113;50.742;6.432;2022-12-07T08:59:47;23.40;;;15.13;;
50225;SDS011;36113;50.742;6.432;2022-12-07T09:02:12;22.55;;;14.23;;
50225;SDS011;36113;50.742;6.432;2022-12-07T09:04:38;20.80;;;13.98;;
50225;SDS011;36113;50.742;6.432;2022-12-07T09:07:03;18.77;;;11.48;;
50225;SDS011;36113;50.742;6.432;2022-12-07T09:09:29;17.52;;;11.65;;
50225;SDS011;36113;50.742;6.432;2022-12-07T09:11:54;14.05;;;8.88;;
50225;SDS011;36113;50.742;6.432;2022-12-07T09:14:20;16.02;;;9.75;;
50225;SDS011;36113;50.742;6.432;2022-12-07T09:16:46;17.58;;;10.93;;
50225;SDS011;36113;50.742;6.432;2022-12-07T09:19:11;15.68;;;10.25;;
50225;SDS011;36113;50.742;6.432;2022-12-07T09:21:37;17.33;;;9.82;;
50225;SDS011;36113;50.742;6.432;2022-12-07T09:24:02;16.52;;;8.07;;
50225;SDS011;36113;50.742;6.432;2022-12-07T09:26:27;11.25;;;7.78;;
50225;SDS011;36113;50.742;6.432;2022-12-07T09:28:53;12.05;;;8.10;;
50225;SDS011;36113;50.742;6.432;2022-12-07T09:31:18;12.52;;;8.27;;
50225;SDS011;36113;50.742;6.432;2022-12-07T09:33:43;15.10;;;9.77;;
50225;SDS011;36113;50.742;6.432;2022-12-07T09:36:09;14.57;;;8.27;;
50225;SDS011;36113;50.742;6.432;2022-12-07T09:38:35;17.17;;;8.02;;
50225;SDS011;36113;50.742;6.432;2022-12-07T09:41:09;12.43;;;7.55;;
50225;SDS011;36113;50.742;6.432;2022-12-07T09:43:35;13.30;;;8.15;;
50225;SDS011;36113;50.742;6.432;2022-12-07T09:46:01;13.52;;;7.80;;
50225;SDS011;36113;50.742;6.432;2022-12-07T09:48:32;13.63;;;7.65;;
50225;SDS011;36113;50.742;6.432;2022-12-07T09:51:25;11.52;;;7.10;;
50225;SDS011;36113;50.742;6.432;2022-12-07T09:53:50;13.80;;;7.53;;
50225;SDS011;36113;50.742;6.432;2022-12-07T09:56:17;16.88;;;7.70;;
50225;SDS011;36113;50.742;6.432;2022-12-07T09:58:44;15.40;;;8.27;;
50225;SDS011;36113;50.742;6.432;2022-12-07T10:01:12;14.90;;;8.23;;
50225;SDS011;36113;50.742;6.432;2022-12-07T10:03:55;11.77;;;8.05;;
50225;SDS011;36113;50.742;6.432;2022-12-07T10:06:26;10.75;;;8.07;;
50225;SDS011;36113;50.742;6.432;2022-12-07T10:08:52;12.10;;;8.90;;
50225;SDS011;36113;50.742;6.432;2022-12-07T10:11:17;15.30;;;9.50;;
50225;SDS011;36113;50.742;6.432;2022-12-07T10:13:46;18.95;;;10.00;;
50225;SDS011;36113;50.742;6.432;2022-12-07T10:19:23;16.35;;;9.50;;
50225;SDS011;36113;50.742;6.432;2022-12-07T10:24:30;17.88;;;11.48;;
50225;SDS011;36113;50.742;6.432;2022-12-07T10:26:56;13.43;;;10.02;;
50225;SDS011;36113;50.742;6.432;2022-12-07T10:29:34;20.40;;;12.10;;
50225;SDS011;36113;50.742;6.432;2022-12-07T10:34:40;16.13;;;10.82;;
50225;SDS011;36113;50.742;6.432;2022-12-07T10:37:12;15.02;;;10.27;;
50225;SDS011;36113;50.742;6.432;2022-12-07T10:50:14;19.52;;;11.85;;
50225;SDS011;36113;50.742;6.432;2022-12-07T10:58:24;15.18;;;10.40;;
50225;SDS011;36113;50.742;6.432;2022-12-07T11:04:15;18.27;;;10.65;;
50225;SDS011;36113;50.742;6.432;2022-12-07T11:10:26;19.50;;;12.45;;
50225;SDS011;36113;50.742;6.432;2022-12-07T11:16:30;22.77;;;13.93;;
50225;SDS011;36113;50.742;6.432;2022-12-07T11:21:51;16.63;;;12.63;;
50225;SDS011;36113;50.742;6.432;2022-12-07T11:37:38;21.17;;;13.88;;
50225;SDS011;36113;50.742;6.432;2022-12-07T11:40:14;16.25;;;10.90;;
50225;SDS011;36113;50.742;6.432;2022-12-07T11:42:46;17.98;;;11.75;;
50225;SDS011;36113;50.742;6.432;2022-12-07T11:45:22;24.35;;;13.40;;
50225;SDS011;36113;50.742;6.432;2022-12-07T11:55:50;20.80;;;13.65;;
50225;SDS011;36113;50.742;6.432;2022-12-07T12:00:46;20.57;;;12.53;;
50225;SDS011;36113;50.742;6.432;2022-12-07T12:03:15;17.60;;;12.10;;
50225;SDS011;36113;50.742;6.432;2022-12-07T12:05:48;17.30;;;11.23;;
50225;SDS011;36113;50.742;6.432;2022-12-07T12:08:18;13.80;;;9.87;;
50225;SDS011;36113;50.742;6.432;2022-12-07T12:15:59;15.02;;;8.77;;
50225;SDS011;36113;50.742;6.432;2022-12-07T12:19:25;10.65;;;8.70;;
50225;SDS011;36113;50.742;6.432;2022-12-07T12:21:32;15.65;;;9.60;;
50225;SDS011;36113;50.742;6.432;2022-12-07T12:26:31;16.70;;;10.48;;
50225;SDS011;36113;50.742;6.432;2022-12-07T12:29:13;12.18;;;9.75;;
50225;SDS011;36113;50.742;6.432;2022-12-07T12:31:47;16.85;;;10.10;;
50225;SDS011;36113;50.742;6.432;2022-12-07T12:34:37;16.33;;;10.13;;
50225;SDS011;36113;50.742;6.432;2022-12-07T12:42:49;13.00;;;8.73;;
50225;SDS011;36113;50.742;6.432;2022-12-07T12:45:20;12.60;;;9.43;;
50225;SDS011;36113;50.742;6.432;2022-12-07T12:48:03;16.60;;;9.30;;
50225;SDS011;36113;50.742;6.432;2022-12-07T12:50:31;12.52;;;9.52;;
50225;SDS011;36113;50.742;6.432;2022-12-07T12:58:28;14.07;;;9.30;;
50225;SDS011;36113;50.742;6.432;2022-12-07T13:01:35;10.82;;;9.52;;
50225;SDS011;36113;50.742;6.432;2022-12-07T13:04:00;17.42;;;9.43;;
50225;SDS011;36113;50.742;6.432;2022-12-07T13:08:53;13.90;;;9.52;;
50225;SDS011;36113;50.742;6.432;2022-12-07T13:11:29;14.32;;;9.95;;
50225;SDS011;36113;50.742;6.432;2022-12-07T13:19:55;13.30;;;9.38;;
50225;SDS011;36113;50.742;6.432;2022-12-07T13:25:09;10.90;;;9.07;;
50225;SDS011;36113;50.742;6.432;2022-12-07T13:27:54;16.30;;;10.35;;
50225;SDS011;36113;50.742;6.432;2022-12-07T13:30:22;14.05;;;10.32;;
50225;SDS011;36113;50.742;6.432;2022-12-07T13:32:55;12.40;;;9.68;;
50225;SDS011;36113;50.742;6.432;2022-12-07T13:37:54;13.38;;;9.55;;
50225;SDS011;36113;50.742;6.432;2022-12-07T13:40:20;15.95;;;9.88;;
50225;SDS011;36113;50.742;6.432;2022-12-07T13:42:47;12.95;;;8.63;;
50225;SDS011;36113;50.742;6.432;2022-12-07T13:45:22;12.80;;;8.82;;
50225;SDS011;36113;50.742;6.432;2022-12-07T13:48:52;9.53;;;8.23;;
50225;SDS011;36113;50.742;6.432;2022-12-07T13:51:02;10.70;;;8.88;;
50225;SDS011;36113;50.742;6.432;2022-12-07T13:53:29;12.38;;;9.00;;
50225;SDS011;36113;50.742;6.432;2022-12-07T13:55:58;13.05;;;9.30;;
50225;SDS011;36113;50.742;6.432;2022-12-07T13:58:26;13.65;;;8.20;;
50225;SDS011;36113;50.742;6.432;2022-12-07T14:00:54;12.75;;;9.73;;
50225;SDS011;36113;50.742;6.432;2022-12-07T14:03:23;16.63;;;8.70;;
50225;SDS011;36113;50.742;6.432;2022-12-07T14:06:13;12.25;;;8.75;;
50225;SDS011;36113;50.742;6.432;2022-12-07T14:08:39;14.23;;;9.82;;
50225;SDS011;36113;50.742;6.432;2022-12-07T14:11:12;14.63;;;9.70;;
50225;SDS011;36113;50.742;6.432;2022-12-07T14:13:59;18.55;;;10.65;;
50225;SDS011;36113;50.742;6.432;2022-12-07T14:16:28;16.25;;;9.82;;
50225;SDS011;36113;50.742;6.432;2022-12-07T14:18:56;13.35;;;9.90;;
50225;SDS011;36113;50.742;6.432;2022-12-07T14:21:24;15.15;;;10.20;;
50225;SDS011;36113;50.742;6.432;2022-12-07T14:26:35;15.93;;;10.25;;
50225;SDS011;36113;50.742;6.432;2022-12-07T14:31:46;19.33;;;11.63;;
50225;SDS011;36113;50.742;6.432;2022-12-07T14:34:12;13.75;;;11.32;;
50225;SDS011;36113;50.742;6.432;2022-12-07T14:36:38;16.30;;;10.48;;
50225;SDS011;36113;50.742;6.432;2022-12-07T14:39:03;18.73;;;11.75;;
50225;SDS011;36113;50.742;6.432;2022-12-07T14:41:28;19.38;;;12.77;;
50225;SDS011;36113;50.742;6.432;2022-12-07T14:44:12;19.83;;;11.07;;
50225;SDS011;36113;50.742;6.432;2022-12-07T14:46:38;26.10;;;13.75;;
50225;SDS011;36113;50.742;6.432;2022-12-07T14:49:03;22.98;;;14.05;;
50225;SDS011;36113;50.742;6.432;2022-12-07T14:51:28;22.00;;;11.68;;
50225;SDS011;36113;50.742;6.432;2022-12-07T14:53:54;18.02;;;11.32;;
50225;SDS011;36113;50.742;6.432;2022-12-07T14:56:19;22.08;;;13.32;;
50225;SDS011;36113;50.742;6.432;2022-12-07T14:58:45;52.20;;;23.98;;
50225;SDS011;36113;50.742;6.432;2022-12-07T15:01:13;36.53;;;20.05;;
50225;SDS011;36113;50.742;6.432;2022-12-07T15:03:38;33.33;;;19.10;;
50225;SDS011;36113;50.742;6.432;2022-12-07T15:06:04;30.75;;;19.00;;
50225;SDS011;36113;50.742;6.432;2022-12-07T15:10:56;42.13;;;20.88;;
50225;SDS011;36113;50.742;6.432;2022-12-07T15:13:21;31.08;;;16.30;;
50225;SDS011;36113;50.742;6.432;2022-12-07T15:16:07;39.00;;;18.38;;
50225;SDS011;36113;50.742;6.432;2022-12-07T15:18:35;32.20;;;19.85;;
50225;SDS011;36113;50.742;6.432;2022-12-07T15:21:01;19.25;;;12.52;;
50225;SDS011;36113;50.742;6.432;2022-12-07T15:23:26;23.70;;;14.40;;
50225;SDS011;36113;50.742;6.432;2022-12-07T15:25:51;13.10;;;11.52;;
50225;SDS011;36113;50.742;6.432;2022-12-07T15:28:17;17.73;;;12.63;;
50225;SDS011;36113;50.742;6.432;2022-12-07T15:30:42;19.75;;;13.55;;
50225;SDS011;36113;50.742;6.432;2022-12-07T15:33:08;19.10;;;14.02;;
50225;SDS011;36113;50.742;6.432;2022-12-07T15:35:38;16.73;;;13.93;;
50225;SDS011;36113;50.742;6.432;2022-12-07T15:38:10;18.20;;;12.73;;
50225;SDS011;36113;50.742;6.432;2022-12-07T15:40:37;20.30;;;13.90;;
50225;SDS011;36113;50.742;6.432;2022-12-07T15:43:03;15.48;;;12.63;;
50225;SDS011;36113;50.742;6.432;2022-12-07T15:45:29;20.07;;;13.27;;
50225;SDS011;36113;50.742;6.432;2022-12-07T15:47:54;22.27;;;14.75;;
50225;SDS011;36113;50.742;6.432;2022-12-07T15:50:20;21.00;;;14.00;;
50225;SDS011;36113;50.742;6.432;2022-12-07T15:52:46;23.00;;;16.52;;
50225;SDS011;36113;50.742;6.432;2022-12-07T15:55:12;20.98;;;14.55;;
50225;SDS011;36113;50.742;6.432;2022-12-07T15:57:38;22.10;;;15.52;;
50225;SDS011;36113;50.742;6.432;2022-12-07T16:00:05;16.27;;;13.45;;
50225;SDS011;36113;50.742;6.432;2022-12-07T16:02:32;17.90;;;14.65;;
50225;SDS011;36113;50.742;6.432;2022-12-07T16:04:57;16.23;;;13.82;;
50225;SDS011;36113;50.742;6.432;2022-12-07T16:07:22;20.75;;;13.27;;
50225;SDS011;36113;50.742;6.432;2022-12-07T16:09:48;15.60;;;11.48;;
50225;SDS011;36113;50.742;6.432;2022-12-07T16:12:15;21.83;;;13.93;;
50225;SDS011;36113;50.742;6.432;2022-12-07T16:14:40;28.58;;;19.50;;
50225;SDS011;36113;50.742;6.432;2022-12-07T16:17:06;21.63;;;13.70;;
50225;SDS011;36113;50.742;6.432;2022-12-07T16:21:58;16.63;;;13.68;;
50225;SDS011;36113;50.742;6.432;2022-12-07T16:24:24;24.23;;;13.55;;
50225;SDS011;36113;50.742;6.432;2022-12-07T16:26:50;15.80;;;13.45;;
50225;SDS011;36113;50.742;6.432;2022-12-07T16:29:15;15.50;;;12.82;;
50225;SDS011;36113;50.742;6.432;2022-12-07T16:31:42;20.77;;;13.68;;
50225;SDS011;36113;50.742;6.432;2022-12-07T16:34:08;21.20;;;13.32;;
50225;SDS011;36113;50.742;6.432;2022-12-07T16:36:34;15.48;;;10.40;;
50225;SDS011;36113;50.742;6.432;2022-12-07T16:38:59;15.85;;;12.10;;
50225;SDS011;36113;50.742;6.432;2022-12-07T16:41:25;20.07;;;12.33;;
50225;SDS011;36113;50.742;6.432;2022-12-07T16:43:51;15.00;;;11.77;;
50225;SDS011;36113;50.742;6.432;2022-12-07T16:46:16;21.10;;;12.63;;